createdAt,value
2019-04-03T00:00:24.371Z,40.10
2019-04-03T00:02:55.535Z,40.24
2019-04-03T00:05:26.635Z,40.35
2019-04-03T00:07:57.604Z,40.20
2019-04-03T00:10:28.661Z,40.26
2019-04-03T00:12:59.716Z,40.36
2019-04-03T00:15:30.633Z,40.28
2019-04-03T00:18:01.941Z,40.26
2019-04-03T00:20:32.854Z,40.67
2019-04-03T00:23:03.947Z,40.55
2019-04-03T00:25:34.948Z,40.70
2019-04-03T00:28:06.077Z,40.81
2019-04-03T00:30:38.051Z,40.79
2019-04-03T00:33:09.109Z,40.40
2019-04-03T00:35:40.160Z,40.38
2019-04-03T00:38:11.314Z,40.40
2019-04-03T00:40:42.197Z,40.45
2019-04-03T00:43:13.167Z,40.33
2019-04-03T00:45:44.087Z,40.69
2019-04-03T00:48:15.218Z,41.27
2019-04-03T00:50:46.141Z,42.21
2019-04-03T00:53:17.105Z,43.93
2019-04-03T00:55:48.093Z,44.47
2019-04-03T00:58:39.911Z,45.28
2019-04-03T01:01:12.044Z,45.04
2019-04-03T01:03:43.114Z,45.51
2019-04-03T01:06:13.988Z,45.37
2019-04-03T01:08:45.041Z,46.18
2019-04-03T01:11:17.143Z,46.72
2019-04-03T01:13:48.243Z,47.22
2019-04-03T01:16:19.212Z,47.51
2019-04-03T01:18:50.280Z,47.64
2019-04-03T01:21:21.259Z,47.87
2019-04-03T01:23:52.386Z,47.60
2019-04-03T01:26:23.362Z,48.08
2019-04-03T01:28:54.378Z,48.40
2019-04-03T01:31:25.361Z,48.72
2019-04-03T01:33:56.313Z,48.83
2019-04-03T01:36:27.304Z,48.65
2019-04-03T01:38:58.354Z,49.43
2019-04-03T01:41:29.286Z,49.18
2019-04-03T01:44:01.431Z,49.12
2019-04-03T01:46:32.380Z,49.47
2019-04-03T01:49:03.380Z,49.66
2019-04-03T01:51:34.235Z,49.19
2019-04-03T01:54:05.358Z,48.76
2019-04-03T01:56:36.422Z,49.22
2019-04-03T01:59:07.506Z,48.88
2019-04-03T02:01:39.232Z,49.27
2019-04-03T02:04:13.015Z,48.46
2019-04-03T02:06:44.351Z,48.59
2019-04-03T02:09:16.062Z,48.65
2019-04-03T02:11:47.630Z,48.34
2019-04-03T02:14:21.586Z,48.49
2019-04-03T02:16:53.499Z,48.57
2019-04-03T02:19:26.101Z,48.41
2019-04-03T02:21:58.511Z,48.41
2019-04-03T02:24:31.815Z,48.59
2019-04-03T02:27:03.492Z,48.76
2019-04-03T02:29:34.539Z,48.25
2019-04-03T02:32:05.438Z,48.26
2019-04-03T02:34:37.711Z,48.29
2019-04-03T02:37:08.808Z,48.24
2019-04-03T02:39:40.137Z,48.03
2019-04-03T02:42:11.117Z,48.08
2019-04-03T02:44:42.022Z,48.54
2019-04-03T02:47:13.011Z,48.51
2019-04-03T02:49:44.089Z,48.84
2019-04-03T02:52:14.966Z,49.13
2019-04-03T02:54:46.046Z,49.48
2019-04-03T02:57:18.184Z,49.89
2019-04-03T02:59:49.842Z,50.09
2019-04-03T03:02:21.739Z,50.71
2019-04-03T03:04:54.667Z,51.06
2019-04-03T03:07:25.698Z,51.33
2019-04-03T03:09:56.985Z,51.45
2019-04-03T03:12:28.740Z,51.39
2019-04-03T03:14:59.814Z,51.62
2019-04-03T03:17:30.732Z,51.77
2019-04-03T03:20:06.547Z,51.70
2019-04-03T03:22:37.909Z,51.85
2019-04-03T03:25:09.355Z,51.85
2019-04-03T03:27:42.083Z,51.35
2019-04-03T03:30:33.211Z,51.24
2019-04-03T03:32:46.057Z,51.58
2019-04-03T03:35:25.982Z,51.78
2019-04-03T03:37:50.817Z,51.83
2019-04-03T03:40:21.709Z,52.05
2019-04-03T03:42:52.642Z,52.35
2019-04-03T03:45:23.682Z,52.66
2019-04-03T03:47:54.660Z,51.87
2019-04-03T03:50:25.929Z,52.00
2019-04-03T03:52:57.199Z,51.95
2019-04-03T03:55:28.654Z,51.86
2019-04-03T03:57:59.932Z,52.02
2019-04-03T04:00:30.944Z,52.18
2019-04-03T04:03:02.987Z,52.32
2019-04-03T04:05:34.352Z,52.39
2019-04-03T04:08:09.353Z,52.38
2019-04-03T04:10:37.999Z,52.38
2019-04-03T04:13:13.608Z,52.43
2019-04-03T04:15:41.669Z,52.57
2019-04-03T04:18:15.031Z,52.66
2019-04-03T04:20:45.776Z,53.14
2019-04-03T04:23:16.896Z,52.95
2019-04-03T04:25:47.842Z,52.20
2019-04-03T04:28:19.288Z,51.78
2019-04-03T04:30:50.473Z,51.76
2019-04-03T04:33:21.390Z,51.36
2019-04-03T04:35:52.973Z,50.83
2019-04-03T04:38:24.822Z,50.20
2019-04-03T04:40:56.969Z,49.73
2019-04-03T04:43:29.015Z,49.16
2019-04-03T04:46:01.076Z,49.56
2019-04-03T04:48:32.200Z,48.52
2019-04-03T04:51:03.218Z,48.13
2019-04-03T04:53:34.199Z,48.24
2019-04-03T04:56:06.502Z,47.20
2019-04-03T04:58:38.292Z,46.72
2019-04-03T05:01:09.163Z,46.54
2019-04-03T05:03:41.150Z,46.35
2019-04-03T05:06:12.225Z,45.68
2019-04-03T05:08:43.163Z,45.22
2019-04-03T05:11:14.184Z,44.78
2019-04-03T05:13:46.876Z,44.00
2019-04-03T05:16:20.173Z,43.92
2019-04-03T05:18:50.534Z,44.11
2019-04-03T05:21:22.305Z,43.77
2019-04-03T05:23:55.686Z,44.06
2019-04-03T05:26:26.320Z,43.24
2019-04-03T05:28:57.813Z,42.39
2019-04-03T05:31:32.153Z,41.10
2019-04-03T05:34:03.064Z,40.40
2019-04-03T05:36:34.127Z,39.52
2019-04-03T05:39:07.344Z,39.14
2019-04-03T05:41:38.363Z,38.78
2019-04-03T05:44:12.153Z,39.13
2019-04-03T05:46:43.191Z,38.66
2019-04-03T05:49:14.314Z,38.20
2019-04-03T05:51:45.502Z,38.35
2019-04-03T05:54:16.419Z,38.35
2019-04-03T05:56:47.650Z,38.31
2019-04-03T05:59:19.246Z,38.05
2019-04-03T06:01:50.218Z,38.06
2019-04-03T06:04:22.025Z,37.73
2019-04-03T06:06:53.067Z,38.21
2019-04-03T06:09:24.009Z,37.77
2019-04-03T06:11:54.959Z,37.39
2019-04-03T06:14:25.918Z,37.33
2019-04-03T06:16:57.281Z,37.55
2019-04-03T06:19:28.354Z,36.90
2019-04-03T06:21:59.404Z,37.23
2019-04-03T06:24:30.353Z,36.87
2019-04-03T06:27:01.309Z,36.66
2019-04-03T06:29:32.449Z,36.61
2019-04-03T06:32:05.779Z,36.42
2019-04-03T06:34:38.389Z,36.30
2019-04-03T06:37:09.145Z,35.78
2019-04-03T06:39:40.167Z,35.78
2019-04-03T06:42:13.017Z,35.30
2019-04-03T06:44:45.510Z,35.38
2019-04-03T06:47:16.577Z,34.91
2019-04-03T06:49:47.562Z,35.11
2019-04-03T06:52:20.957Z,34.90
2019-04-03T06:54:51.124Z,34.80
2019-04-03T06:57:22.080Z,34.79
2019-04-03T06:59:53.413Z,34.86
2019-04-03T07:02:27.289Z,34.79
2019-04-03T07:04:57.952Z,34.48
2019-04-03T07:07:34.198Z,34.44
2019-04-03T07:10:03.752Z,33.80
2019-04-03T07:12:34.386Z,33.76
2019-04-03T07:15:06.902Z,33.89
2019-04-03T07:17:38.161Z,33.61
2019-04-03T07:20:14.492Z,33.96
2019-04-03T07:22:41.988Z,33.73
2019-04-03T07:25:12.805Z,33.18
2019-04-03T07:27:43.907Z,33.49
2019-04-03T07:30:16.959Z,33.58
2019-04-03T07:32:48.076Z,33.70
2019-04-03T07:35:18.983Z,33.54
2019-04-03T07:37:51.054Z,32.94
2019-04-03T07:40:22.376Z,32.85
2019-04-03T07:42:56.285Z,32.98
2019-04-03T07:45:26.900Z,33.15
2019-04-03T07:47:57.928Z,32.60
2019-04-03T07:50:28.670Z,31.87
2019-04-03T07:52:59.760Z,32.10
2019-04-03T07:55:30.733Z,31.45
2019-04-03T07:58:01.898Z,31.32
2019-04-03T08:00:32.790Z,31.69
2019-04-03T08:03:03.736Z,31.95
2019-04-03T08:05:35.562Z,32.17
2019-04-03T08:08:06.844Z,32.12
2019-04-03T08:10:37.937Z,31.60
2019-04-03T08:13:09.283Z,30.86
2019-04-03T08:15:40.204Z,29.36
2019-04-03T08:18:11.208Z,30.37
2019-04-03T08:20:42.087Z,30.92
2019-04-03T08:23:13.237Z,30.84
2019-04-03T08:25:47.182Z,30.50
2019-04-03T08:28:17.001Z,29.57
2019-04-03T08:30:48.014Z,28.90
2019-04-03T08:33:25.279Z,29.79
2019-04-03T08:35:51.892Z,30.32
2019-04-03T08:38:22.902Z,30.25
2019-04-03T08:40:53.834Z,29.32
2019-04-03T08:43:24.740Z,28.84
2019-04-03T08:45:55.745Z,28.77
2019-04-03T08:48:26.595Z,28.64
2019-04-03T08:50:58.417Z,28.59
2019-04-03T08:53:30.211Z,29.24
2019-04-03T08:56:01.469Z,28.47
2019-04-03T08:58:32.678Z,29.00
2019-04-03T09:01:04.849Z,28.88
2019-04-03T09:03:36.602Z,28.37
2019-04-03T09:06:08.377Z,28.45
2019-04-03T09:08:39.482Z,28.21
2019-04-03T09:11:10.813Z,29.21
2019-04-03T09:13:41.737Z,29.31
2019-04-03T09:16:12.766Z,28.95
2019-04-03T09:18:43.695Z,28.55
2019-04-03T09:21:15.577Z,27.85
2019-04-03T09:23:47.118Z,28.33
2019-04-03T09:26:18.011Z,27.90
2019-04-03T09:28:49.185Z,27.50
2019-04-03T09:31:20.771Z,27.31
2019-04-03T09:33:51.760Z,26.67
2019-04-03T09:36:22.588Z,26.50
2019-04-03T09:38:53.410Z,27.49
2019-04-03T09:41:24.328Z,27.44
2019-04-03T09:43:55.561Z,27.17
2019-04-03T09:46:26.834Z,26.56
2019-04-03T09:48:59.386Z,26.51
2019-04-03T09:51:30.575Z,26.62
2019-04-03T09:54:01.626Z,26.69
2019-04-03T09:56:32.642Z,26.71
2019-04-03T09:59:04.457Z,26.69
2019-04-03T10:01:36.343Z,26.54
2019-04-03T10:04:07.335Z,25.95
2019-04-03T10:06:39.520Z,25.56
2019-04-03T10:09:12.019Z,26.01
2019-04-03T10:11:43.402Z,25.31
2019-04-03T10:14:15.430Z,24.51
2019-04-03T10:16:46.517Z,24.60
2019-04-03T10:19:17.465Z,24.39
2019-04-03T10:21:50.060Z,24.44
2019-04-03T10:24:21.138Z,25.58
2019-04-03T10:26:51.987Z,25.61
2019-04-03T10:29:24.098Z,25.96
2019-04-03T10:31:56.051Z,25.84
2019-04-03T10:34:28.345Z,25.28
2019-04-03T10:36:59.403Z,24.59
2019-04-03T10:39:30.452Z,24.46
2019-04-03T10:42:01.724Z,23.99
2019-04-03T10:44:33.204Z,24.86
2019-04-03T10:47:04.163Z,25.12
2019-04-03T10:49:35.067Z,25.40
2019-04-03T10:52:06.300Z,25.30
2019-04-03T10:54:38.483Z,25.00
2019-04-03T10:57:09.709Z,24.85
2019-04-03T10:59:40.722Z,24.52
2019-04-03T11:02:11.985Z,24.77
2019-04-03T11:04:44.166Z,24.77
2019-04-03T11:07:15.977Z,24.86
2019-04-03T11:09:47.070Z,24.78
2019-04-03T11:12:19.090Z,24.57
2019-04-03T11:14:50.386Z,24.99
2019-04-03T11:17:21.526Z,23.80
2019-04-03T11:19:52.763Z,24.03
2019-04-03T11:22:23.720Z,24.46
2019-04-03T11:24:55.186Z,24.23
2019-04-03T11:27:40.851Z,24.26
2019-04-03T11:29:59.035Z,24.35
2019-04-03T11:32:30.011Z,24.57
2019-04-03T11:35:02.036Z,24.74
2019-04-03T11:37:33.831Z,24.21
2019-04-03T11:40:07.355Z,23.98
2019-04-03T11:42:38.328Z,24.28
2019-04-03T11:45:09.299Z,24.05
2019-04-03T11:47:40.410Z,23.89
2019-04-03T11:50:11.309Z,23.65
2019-04-03T11:52:42.402Z,23.51
2019-04-03T11:55:13.463Z,23.04
2019-04-03T11:57:47.427Z,22.68
2019-04-03T12:00:24.587Z,22.89
2019-04-03T12:02:55.739Z,22.59
2019-04-03T12:05:27.075Z,23.45
2019-04-03T12:07:58.956Z,23.58
2019-04-03T12:10:30.011Z,24.12
2019-04-03T12:13:03.626Z,24.20
2019-04-03T12:15:34.738Z,24.07
2019-04-03T12:18:06.436Z,23.98
2019-04-03T12:20:41.190Z,23.92
2019-04-03T12:23:10.286Z,23.35
2019-04-03T12:25:41.473Z,23.77
2019-04-03T12:28:12.606Z,23.79
2019-04-03T12:30:43.706Z,23.51
2019-04-03T12:33:14.683Z,23.29
2019-04-03T12:35:46.222Z,23.34
2019-04-03T12:38:17.258Z,23.02
2019-04-03T12:40:48.245Z,22.97
2019-04-03T12:43:20.283Z,22.73
2019-04-03T12:45:51.248Z,23.09
2019-04-03T12:48:22.225Z,23.57
2019-04-03T12:50:54.779Z,23.52
2019-04-03T12:53:25.956Z,23.41
2019-04-03T12:55:58.306Z,23.37
2019-04-03T12:58:45.721Z,23.37
2019-04-03T13:01:17.683Z,23.17
2019-04-03T13:03:49.483Z,22.71
2019-04-03T13:06:20.445Z,23.47
2019-04-03T13:08:52.740Z,23.64
2019-04-03T13:11:24.337Z,27.06
2019-04-03T13:13:55.450Z,25.05
2019-04-03T13:16:26.776Z,24.25
2019-04-03T13:18:57.775Z,23.34
2019-04-03T13:21:28.877Z,23.22
2019-04-03T13:23:59.926Z,24.47
2019-04-03T13:26:31.039Z,23.92
2019-04-03T13:29:02.264Z,23.65
2019-04-03T13:31:33.390Z,24.17
2019-04-03T13:34:04.497Z,24.30
2019-04-03T13:36:35.711Z,25.24
2019-04-03T13:39:07.568Z,25.10
2019-04-03T13:41:39.942Z,25.69
2019-04-03T13:44:11.330Z,26.33
2019-04-03T13:46:42.433Z,26.48
2019-04-03T13:49:15.177Z,29.78
2019-04-03T13:51:46.476Z,26.18
2019-04-03T13:54:17.217Z,30.93
2019-04-03T13:56:48.131Z,30.17
2019-04-03T13:59:19.150Z,25.07
2019-04-03T14:01:50.154Z,24.67
2019-04-03T14:04:22.860Z,23.75
2019-04-03T14:06:53.745Z,23.86
2019-04-03T14:09:25.572Z,23.42
2019-04-03T14:11:56.873Z,24.82
2019-04-03T14:14:27.787Z,24.76
2019-04-03T14:16:58.801Z,25.11
2019-04-03T14:19:41.499Z,24.79
2019-04-03T14:22:03.470Z,24.85
2019-04-03T14:24:41.436Z,24.70
2019-04-03T14:27:17.436Z,24.79
2019-04-03T14:29:39.797Z,24.80
2019-04-03T14:32:13.572Z,24.78
2019-04-03T14:34:43.416Z,24.80
2019-04-03T14:37:14.396Z,25.03
2019-04-03T14:39:45.417Z,24.95
2019-04-03T14:42:16.390Z,24.69
2019-04-03T14:44:47.505Z,24.47
2019-04-03T14:47:20.149Z,24.20
2019-04-03T14:49:51.139Z,24.27
2019-04-03T14:52:22.218Z,24.31
2019-04-03T14:54:53.975Z,24.13
2019-04-03T14:57:29.602Z,24.02
2019-04-03T15:00:05.094Z,23.76
2019-04-03T15:02:34.850Z,23.53
2019-04-03T15:05:07.419Z,23.59
2019-04-03T15:07:39.123Z,23.55
2019-04-03T15:10:10.872Z,23.53
2019-04-03T15:12:42.260Z,24.15
2019-04-03T15:15:13.219Z,23.86
2019-04-03T15:17:44.471Z,23.96
2019-04-03T15:20:17.929Z,26.06
2019-04-03T15:22:48.371Z,28.87
2019-04-03T15:25:20.688Z,25.69
2019-04-03T15:27:51.830Z,25.43
2019-04-03T15:30:24.915Z,25.66
2019-04-03T15:32:55.871Z,25.91
2019-04-03T15:35:26.916Z,25.98
2019-04-03T15:37:58.230Z,26.29
2019-04-03T15:40:29.825Z,26.14
2019-04-03T15:43:01.464Z,26.31
2019-04-03T15:45:32.475Z,26.41
2019-04-03T15:48:03.645Z,26.31
2019-04-03T15:50:37.710Z,26.48
2019-04-03T15:53:07.399Z,26.60
2019-04-03T15:55:39.455Z,26.42
2019-04-03T15:58:10.597Z,27.02
2019-04-03T16:00:42.856Z,35.11
2019-04-03T16:03:17.684Z,30.98
2019-04-03T16:05:48.120Z,28.51
2019-04-03T16:08:19.678Z,29.52
2019-04-03T16:10:51.692Z,29.29
2019-04-03T16:13:22.783Z,30.32
2019-04-03T16:15:56.212Z,29.24
2019-04-03T16:18:26.540Z,30.45
2019-04-03T16:20:57.459Z,29.44
2019-04-03T16:23:28.589Z,30.84
2019-04-03T16:25:59.770Z,31.92
2019-04-03T16:28:33.392Z,30.25
2019-04-03T16:31:03.770Z,29.27
2019-04-03T16:33:35.804Z,29.79
2019-04-03T16:36:07.523Z,30.27
2019-04-03T16:38:38.468Z,30.12
2019-04-03T16:41:10.866Z,30.65
2019-04-03T16:43:42.413Z,30.92
2019-04-03T16:46:17.835Z,30.49
2019-04-03T16:48:49.932Z,31.13
2019-04-03T16:51:22.387Z,31.92
2019-04-03T16:53:54.353Z,31.90
2019-04-03T16:56:25.665Z,31.21
2019-04-03T16:58:59.585Z,30.58
2019-04-03T17:01:29.387Z,31.59
2019-04-03T17:04:02.880Z,31.47
2019-04-03T17:06:34.152Z,31.20
2019-04-03T17:09:07.885Z,32.48
2019-04-03T17:11:43.539Z,30.74
2019-04-03T17:14:14.814Z,31.41
2019-04-03T17:16:46.969Z,30.67
2019-04-03T17:19:18.842Z,30.96
2019-04-03T17:21:50.385Z,31.25
2019-04-03T17:24:21.484Z,31.27
2019-04-03T17:26:57.371Z,31.39
2019-04-03T17:29:24.973Z,31.47
2019-04-03T17:31:58.136Z,31.94
2019-04-03T17:34:29.058Z,32.10
2019-04-03T17:37:01.450Z,32.67
2019-04-03T17:39:33.912Z,31.86
2019-04-03T17:42:06.771Z,31.57
2019-04-03T17:44:38.404Z,32.14
2019-04-03T17:47:09.781Z,31.74
2019-04-03T17:49:40.842Z,32.38
2019-04-03T17:52:11.763Z,32.24
2019-04-03T17:54:42.708Z,32.36
2019-04-03T17:57:14.174Z,32.06
2019-04-03T17:59:46.981Z,32.75
2019-04-03T18:02:17.960Z,32.79
2019-04-03T18:04:51.170Z,32.61
2019-04-03T18:07:21.601Z,32.54
2019-04-03T18:09:52.529Z,32.40
2019-04-03T18:12:24.365Z,32.20
2019-04-03T18:14:55.731Z,33.16
2019-04-03T18:17:28.197Z,33.10
2019-04-03T18:19:59.329Z,32.55
2019-04-03T18:22:30.237Z,32.47
2019-04-03T18:25:01.327Z,32.65
2019-04-03T18:27:33.525Z,32.94
2019-04-03T18:30:11.823Z,33.06
2019-04-03T18:32:45.514Z,33.18
2019-04-03T18:35:15.077Z,33.94
2019-04-03T18:37:46.083Z,33.89
2019-04-03T18:40:16.992Z,34.04
2019-04-03T18:42:50.182Z,33.89
2019-04-03T18:45:25.470Z,34.72
2019-04-03T18:47:53.254Z,34.89
2019-04-03T18:50:24.363Z,34.95
2019-04-03T18:52:55.541Z,35.08
2019-04-03T18:55:26.666Z,35.02
2019-04-03T18:57:57.684Z,35.13
2019-04-03T19:00:30.447Z,35.29
2019-04-03T19:03:01.444Z,34.57
2019-04-03T19:05:32.588Z,34.21
2019-04-03T19:08:12.914Z,33.92
2019-04-03T19:10:36.335Z,34.10
2019-04-03T19:13:08.247Z,35.21
2019-04-03T19:15:39.322Z,35.82
2019-04-03T19:18:19.423Z,35.78
2019-04-03T19:20:43.067Z,36.17
2019-04-03T19:23:14.103Z,36.69
2019-04-03T19:25:45.864Z,37.15
2019-04-03T19:28:16.855Z,36.38
2019-04-03T19:30:47.884Z,36.70
2019-04-03T19:33:18.933Z,36.97
2019-04-03T19:35:49.957Z,36.46
2019-04-03T19:38:20.920Z,36.07
2019-04-03T19:40:51.937Z,35.33
2019-04-03T19:43:22.965Z,36.56
2019-04-03T19:45:53.996Z,36.49
2019-04-03T19:48:25.645Z,37.47
2019-04-03T19:50:57.347Z,38.08
2019-04-03T19:53:28.371Z,37.28
2019-04-03T19:55:59.465Z,37.95
2019-04-03T19:58:30.398Z,37.29
2019-04-03T20:01:03.597Z,37.67
2019-04-03T20:03:34.285Z,38.13
2019-04-03T20:06:06.279Z,37.53
2019-04-03T20:08:37.364Z,37.85
2019-04-03T20:11:08.464Z,38.91
2019-04-03T20:13:40.442Z,39.12
2019-04-03T20:16:11.537Z,39.25
2019-04-03T20:18:42.478Z,39.68
2019-04-03T20:21:15.241Z,39.78
2019-04-03T20:23:48.515Z,39.96
2019-04-03T20:26:20.381Z,40.42
2019-04-03T20:28:51.277Z,40.09
2019-04-03T20:31:22.247Z,40.48
2019-04-03T20:33:53.294Z,40.56
2019-04-03T20:36:24.291Z,41.18
2019-04-03T20:38:55.942Z,40.71
2019-04-03T20:41:28.093Z,40.44
2019-04-03T20:43:59.061Z,39.95
2019-04-03T20:46:30.193Z,40.90
2019-04-03T20:49:03.152Z,40.85
2019-04-03T20:51:35.481Z,40.79
2019-04-03T20:54:06.710Z,40.75
2019-04-03T20:56:37.883Z,40.29
2019-04-03T20:59:11.149Z,39.65
2019-04-03T21:01:41.636Z,40.54
2019-04-03T21:04:12.985Z,40.53
2019-04-03T21:06:45.257Z,40.16
2019-04-03T21:09:16.366Z,40.22
2019-04-03T21:11:47.306Z,40.37
2019-04-03T21:14:19.414Z,40.96
2019-04-03T21:16:50.470Z,41.93
2019-04-03T21:19:22.008Z,41.34
2019-04-03T21:21:54.403Z,41.26
2019-04-03T21:24:25.313Z,41.68
2019-04-03T21:26:56.386Z,42.26
2019-04-03T21:29:27.299Z,41.88
2019-04-03T21:31:58.374Z,41.92
2019-04-03T21:34:31.009Z,42.44
2019-04-03T21:37:02.041Z,42.53
2019-04-03T21:39:33.873Z,42.61
2019-04-03T21:42:05.122Z,43.29
2019-04-03T21:44:36.026Z,43.13
2019-04-03T21:47:06.949Z,42.62
2019-04-03T21:49:37.932Z,43.47
2019-04-03T21:52:08.859Z,43.74
2019-04-03T21:54:39.731Z,43.67
2019-04-03T21:57:10.706Z,43.59
2019-04-03T21:59:42.239Z,43.36
2019-04-03T22:02:14.022Z,43.28
2019-04-03T22:04:46.052Z,43.33
2019-04-03T22:07:17.131Z,43.51
2019-04-03T22:09:48.109Z,43.21
2019-04-03T22:12:19.111Z,43.22
2019-04-03T22:14:50.864Z,43.91
2019-04-03T22:17:22.462Z,44.42
2019-04-03T22:19:53.481Z,44.69
2019-04-03T22:22:24.699Z,45.23
2019-04-03T22:24:55.625Z,45.35
2019-04-03T22:27:26.557Z,45.28
2019-04-03T22:29:57.501Z,44.91
2019-04-03T22:32:28.416Z,44.92
2019-04-03T22:35:00.933Z,45.17
2019-04-03T22:37:33.248Z,45.24
2019-04-03T22:40:05.803Z,45.36
2019-04-03T22:42:36.722Z,45.04
2019-04-03T22:45:07.699Z,44.89
2019-04-03T22:47:38.639Z,44.66
2019-04-03T22:50:10.008Z,44.46
2019-04-03T22:52:41.048Z,44.54
2019-04-03T22:55:12.978Z,45.02
2019-04-03T22:57:45.573Z,44.88
2019-04-03T23:00:16.506Z,45.27
2019-04-03T23:02:47.524Z,44.83
2019-04-03T23:05:18.518Z,44.89
2019-04-03T23:07:52.043Z,45.30
2019-04-03T23:10:23.672Z,45.52
2019-04-03T23:12:56.226Z,45.29
2019-04-03T23:15:28.139Z,45.08
2019-04-03T23:17:59.299Z,45.18
2019-04-03T23:20:30.217Z,45.06
2019-04-03T23:23:01.203Z,45.14
2019-04-03T23:25:32.088Z,44.96
2019-04-03T23:28:03.680Z,45.96
2019-04-03T23:30:34.808Z,46.07
2019-04-03T23:33:05.747Z,46.04
2019-04-03T23:35:36.640Z,46.15
2019-04-03T23:38:07.661Z,46.13
2019-04-03T23:40:38.532Z,45.83
2019-04-03T23:43:09.505Z,45.78
2019-04-03T23:45:43.572Z,45.25
2019-04-03T23:48:13.321Z,45.50
2019-04-03T23:50:44.384Z,45.49
2019-04-03T23:53:15.385Z,46.48
2019-04-03T23:55:46.288Z,45.59
2019-04-03T23:58:17.244Z,45.35
